Time;durP1;ratioP1;P1;durP2;ratioP2;P2;SDS_P1;SDS_P2;PMS_P1;PMS_P2;Temp;Humidity;BMP_temperature;BMP_pressure;BME280_temperature;BME280_humidity;BME280_pressure;Samples;Min_cycle;Max_cycle;Signal;HPM_P1;HPM_P2
2021/07/20 00:04:21;;;;;;;3.03;2.30;;;20.10;66.40;;;;;;10451491;28;20691;-31
2021/07/20 00:09:44;;;;;;;5.37;2.50;;;20.10;66.40;;;;;;10449987;28;20221;-31
2021/07/20 00:15:09;;;;;;;5.23;2.57;;;20.10;67.20;;;;;;10449494;28;20556;-31
2021/07/20 00:20:31;;;;;;;5.03;2.50;;;20.10;66.50;;;;;;10438084;28;20233;-32
2021/07/20 00:25:55;;;;;;;4.10;2.10;;;20.10;66.60;;;;;;10429552;28;20198;-31
2021/07/20 00:31:17;;;;;;;4.47;2.37;;;20.10;66.50;;;;;;10417336;28;20592;-31
2021/07/20 00:36:39;;;;;;;2.83;2.60;;;20.00;66.40;;;;;;10432087;28;20695;-31
2021/07/20 00:42:02;;;;;;;4.50;2.73;;;20.00;66.40;;;;;;10458019;28;20600;-30
2021/07/20 00:47:24;;;;;;;5.53;2.57;;;20.00;66.70;;;;;;10459463;28;20217;-31
2021/07/20 00:52:47;;;;;;;5.73;3.27;;;20.00;66.70;;;;;;10457083;28;20599;-31
2021/07/20 00:58:12;;;;;;;4.77;2.40;;;20.00;66.70;;;;;;10456969;28;20209;-30
2021/07/20 01:03:34;;;;;;;4.53;2.30;;;20.00;66.80;;;;;;10456752;28;20204;-30
2021/07/20 01:09:00;;;;;;;4.70;2.53;;;20.00;66.80;;;;;;10447715;28;20225;-30
2021/07/20 01:14:26;;;;;;;4.47;2.23;;;20.00;67.00;;;;;;10453355;28;20215;-31
2021/07/20 01:19:52;;;;;;;7.13;2.77;;;20.00;67.00;;;;;;10451065;28;20221;-30
2021/07/20 01:25:16;;;;;;;4.60;2.60;;;20.00;66.90;;;;;;10456547;28;20223;-29
2021/07/20 01:30:42;;;;;;;4.07;2.30;;;20.00;66.90;;;;;;10457112;28;20217;-31
2021/07/20 01:36:06;;;;;;;5.93;2.77;;;20.00;67.10;;;;;;10453937;28;20253;-32
2021/07/20 01:41:32;;;;;;;4.67;2.77;;;20.00;67.20;;;;;;10441143;28;20199;-32
2021/07/20 01:46:56;;;;;;;5.90;3.13;;;20.00;67.50;;;;;;10455049;28;20220;-30
2021/07/20 01:52:19;;;;;;;3.60;2.43;;;19.90;66.90;;;;;;10455037;28;20220;-29
2021/07/20 01:57:42;;;;;;;4.43;2.53;;;19.90;67.20;;;;;;10454039;28;20224;-32
2021/07/20 02:03:17;;;;;;;4.93;2.40;;;19.90;67.10;;;;;;10454414;28;20197;-31
2021/07/20 02:08:41;;;;;;;5.23;3.10;;;20.00;67.30;;;;;;10453945;28;20214;-30
2021/07/20 02:14:11;;;;;;;5.17;2.60;;;19.90;67.10;;;;;;10413421;28;20194;-32
2021/07/20 02:19:37;;;;;;;4.13;2.43;;;19.90;67.20;;;;;;10418898;28;20219;-30
2021/07/20 02:25:00;;;;;;;4.07;2.80;;;19.90;67.10;;;;;;10452938;28;20189;-30
2021/07/20 02:30:24;;;;;;;3.77;2.63;;;19.90;67.30;;;;;;10452972;28;20632;-30
2021/07/20 02:35:47;;;;;;;4.23;2.57;;;19.90;67.00;;;;;;10452980;28;20199;-30
2021/07/20 02:41:11;;;;;;;7.73;3.20;;;19.80;66.90;;;;;;10452297;28;20212;-31
2021/07/20 02:46:36;;;;;;;4.63;3.20;;;19.80;67.00;;;;;;10452388;28;20593;-30
2021/07/20 02:51:59;;;;;;;4.40;2.57;;;19.80;67.10;;;;;;10452339;28;20223;-30
2021/07/20 02:57:21;;;;;;;6.97;3.13;;;19.80;67.20;;;;;;10453475;28;20224;-29
2021/07/20 03:02:46;;;;;;;7.17;2.70;;;19.80;67.30;;;;;;10453077;28;20192;-28
2021/07/20 03:08:10;;;;;;;3.93;2.70;;;19.80;67.40;;;;;;10444829;28;20722;-31
2021/07/20 03:13:38;;;;;;;5.07;3.67;;;19.80;67.50;;;;;;10448839;28;20272;-28
2021/07/20 03:19:04;;;;;;;5.37;2.90;;;19.80;67.60;;;;;;10479115;22;20232;-25
2021/07/20 03:24:26;;;;;;;5.03;2.80;;;19.70;67.60;;;;;;10482464;28;20203;-26
2021/07/20 03:29:58;;;;;;;5.23;3.13;;;19.70;67.60;;;;;;10492377;28;20227;-25
2021/07/20 03:35:22;;;;;;;5.97;3.13;;;19.70;67.70;;;;;;10410944;28;20197;-25
2021/07/20 03:40:45;;;;;;;5.87;3.00;;;19.70;67.80;;;;;;10453147;28;20611;-23
2021/07/20 03:46:07;;;;;;;5.10;2.77;;;19.80;67.90;;;;;;10515718;28;20687;-23
2021/07/20 03:51:32;;;;;;;4.70;2.70;;;19.80;67.80;;;;;;10471493;28;20219;-23
2021/07/20 03:56:56;;;;;;;5.77;3.00;;;19.80;67.90;;;;;;10478213;28;20215;-23
2021/07/20 04:02:22;;;;;;;5.87;3.23;;;19.80;68.10;;;;;;10458294;28;20193;-25
2021/07/20 04:07:46;;;;;;;5.77;3.37;;;19.70;68.00;;;;;;10458652;28;20229;-22
2021/07/20 04:13:11;;;;;;;4.60;3.00;;;19.80;68.00;;;;;;10458489;28;20627;-24
2021/07/20 04:18:36;;;;;;;4.03;3.10;;;19.80;67.90;;;;;;10458513;28;20224;-23
2021/07/20 04:24:00;;;;;;;5.97;3.00;;;19.80;68.10;;;;;;10526560;28;20681;-23
2021/07/20 04:29:22;;;;;;;6.87;3.47;;;19.80;68.10;;;;;;10540412;28;20220;-23
2021/07/20 04:34:45;;;;;;;3.90;2.40;;;19.80;68.10;;;;;;10510977;28;20203;-24
2021/07/20 04:40:10;;;;;;;4.27;3.10;;;19.80;68.20;;;;;;10497532;28;20560;-23
2021/07/20 04:45:34;;;;;;;5.47;3.20;;;19.70;68.10;;;;;;10482206;28;20200;-24
2021/07/20 04:50:57;;;;;;;5.20;3.30;;;19.70;68.30;;;;;;10484176;28;20232;-23
2021/07/20 04:56:23;;;;;;;5.87;3.17;;;19.80;68.60;;;;;;10478126;28;20675;-23
2021/07/20 05:01:46;;;;;;;4.17;2.60;;;19.80;68.70;;;;;;10493748;28;20592;-25
2021/07/20 05:07:12;;;;;;;5.27;2.70;;;19.80;68.70;;;;;;10457342;28;20189;-23
2021/07/20 05:12:37;;;;;;;5.03;2.87;;;19.80;68.70;;;;;;10456064;28;20584;-25
2021/07/20 05:17:59;;;;;;;5.03;2.73;;;19.80;68.90;;;;;;10512870;28;20710;-22
2021/07/20 05:29:46;;;;;;;6.97;2.80;;;19.80;68.90;;;;;;10492757;28;20266;-23
2021/07/20 05:35:11;;;;;;;6.00;2.70;;;19.80;68.80;;;;;;10475826;28;20235;-23
2021/07/20 05:40:33;;;;;;;5.47;2.73;;;19.80;69.20;;;;;;10502429;28;20223;-23
2021/07/20 05:46:00;;;;;;;4.03;2.40;;;19.80;69.60;;;;;;10454550;28;20660;-23
2021/07/20 05:51:22;;;;;;;3.80;2.70;;;19.80;69.10;;;;;;10454402;28;20217;-24
2021/07/20 05:56:47;;;;;;;7.60;2.97;;;19.80;69.20;;;;;;10453925;28;20192;-23
2021/07/20 06:02:13;;;;;;;5.37;2.50;;;19.80;69.40;;;;;;10452731;28;20197;-25
2021/07/20 06:07:35;;;;;;;6.50;2.90;;;19.80;69.30;;;;;;10454767;28;20295;-23
2021/07/20 06:12:59;;;;;;;38.67;8.67;;;19.80;69.00;;;;;;10497477;28;20220;-23
2021/07/20 06:18:22;;;;;;;17.83;4.80;;;19.70;71.00;;;;;;10460061;28;20695;-23
2021/07/20 06:23:46;;;;;;;6.40;3.10;;;19.60;70.20;;;;;;10520995;28;20605;-24
2021/07/20 06:29:10;;;;;;;7.70;3.10;;;19.50;70.70;;;;;;10475020;28;20260;-24
2021/07/20 06:34:35;;;;;;;5.70;2.60;;;19.40;71.10;;;;;;10453056;28;20572;-22
2021/07/20 06:39:57;;;;;;;4.33;2.60;;;19.40;70.60;;;;;;10496556;28;20223;-22
2021/07/20 06:45:20;;;;;;;4.33;2.77;;;19.40;71.10;;;;;;10494508;28;20200;-24
2021/07/20 06:50:44;;;;;;;3.87;2.57;;;19.40;71.30;;;;;;10490051;28;20231;-24
2021/07/20 06:56:09;;;;;;;4.83;2.80;;;19.40;71.50;;;;;;10489412;28;20207;-25
2021/07/20 07:01:33;;;;;;;6.20;2.60;;;19.50;71.40;;;;;;10486295;28;20572;-24
2021/07/20 07:06:59;;;;;;;5.27;2.77;;;19.40;70.70;;;;;;10485140;28;20671;-22
2021/07/20 07:12:21;;;;;;;2.70;2.33;;;19.40;70.80;;;;;;10494313;28;20791;-24
2021/07/20 07:17:47;;;;;;;3.63;2.43;;;19.50;70.70;;;;;;10491564;28;20719;-25
2021/07/20 07:23:12;;;;;;;7.07;2.63;;;19.40;70.10;;;;;;10521025;28;20761;-23
2021/07/20 07:28:35;;;;;;;5.37;2.70;;;19.40;71.30;;;;;;10498630;28;20227;-24
2021/07/20 07:33:57;;;;;;;5.30;2.40;;;19.30;70.90;;;;;;10493133;28;20549;-23
2021/07/20 07:39:24;;;;;;;5.23;2.53;;;19.40;71.00;;;;;;10505054;28;20212;-23
2021/07/20 07:44:49;;;;;;;8.30;2.60;;;19.50;71.20;;;;;;10532472;28;20194;-22
2021/07/20 07:50:12;;;;;;;5.93;2.33;;;19.60;71.40;;;;;;10542076;28;20261;-23
2021/07/20 07:55:37;;;;;;;4.33;2.30;;;19.70;71.50;;;;;;10534681;28;20582;-23
2021/07/20 08:01:02;;;;;;;4.37;2.00;;;19.80;71.60;;;;;;10525652;28;20337;-23
2021/07/20 08:06:26;;;;;;;6.77;2.50;;;19.80;71.70;;;;;;10524339;28;20733;-23
2021/07/20 08:11:50;;;;;;;12.10;2.47;;;19.90;71.80;;;;;;10478064;28;20231;-23
2021/07/20 08:17:13;;;;;;;3.27;2.00;;;19.90;71.80;;;;;;10457507;28;21147;-22
2021/07/20 08:22:35;;;;;;;4.53;2.20;;;20.00;72.10;;;;;;10514372;28;20203;-24
2021/07/20 08:28:06;;;;;;;4.60;2.37;;;20.00;71.60;;;;;;10491928;28;20708;-23
2021/07/20 08:33:31;;;;;;;5.57;2.40;;;20.00;71.40;;;;;;10493344;28;20715;-24
2021/07/20 08:38:56;;;;;;;3.93;2.37;;;20.00;71.60;;;;;;10455532;28;20244;-23
2021/07/20 08:44:35;;;;;;;3.97;2.20;;;20.00;71.60;;;;;;10457902;28;20199;-25
2021/07/20 08:50:17;;;;;;;6.13;2.60;;;20.00;71.80;;;;;;10496868;28;20216;-23
2021/07/20 08:55:42;;;;;;;4.73;2.50;;;20.10;71.90;;;;;;10498547;28;20553;-22
2021/07/20 09:01:11;;;;;;;3.60;2.40;;;20.00;71.90;;;;;;10456003;28;20209;-23
2021/07/20 09:06:38;;;;;;;3.63;2.20;;;20.10;71.90;;;;;;10494598;28;20188;-23
2021/07/20 09:12:05;;;;;;;4.33;1.93;;;20.10;71.90;;;;;;10507925;28;20205;-23
2021/07/20 09:22:38;;;;;;;3.43;2.10;;;20.10;71.80;;;;;;10445960;28;20248;-28
2021/07/20 09:28:03;;;;;;;3.47;2.50;;;20.10;71.90;;;;;;10455079;28;20217;-30
2021/07/20 09:33:35;;;;;;;2.90;2.13;;;20.10;71.80;;;;;;10448214;28;20315;-28
2021/07/20 09:39:39;;;;;;;3.20;2.10;;;20.20;71.70;;;;;;10414125;28;20222;-29
2021/07/20 09:45:08;;;;;;;3.20;2.37;;;20.20;71.60;;;;;;10392681;28;20276;-28
2021/07/20 09:50:34;;;;;;;3.03;2.67;;;20.20;71.50;;;;;;10412966;28;20656;-28
2021/07/20 09:56:14;;;;;;;6.83;3.27;;;20.20;70.90;;;;;;10430162;28;20189;-30
2021/07/20 10:01:39;;;;;;;4.00;2.80;;;20.20;70.00;;;;;;10453345;28;20335;-29
2021/07/20 10:07:09;;;;;;;4.07;3.07;;;20.20;70.00;;;;;;10454050;28;20436;-30
2021/07/20 10:12:42;;;;;;;5.50;2.77;;;20.20;69.60;;;;;;10431733;28;20221;-29
2021/07/20 10:18:13;;;;;;;3.97;3.37;;;20.30;68.70;;;;;;10411786;28;20236;-30
2021/07/20 10:23:42;;;;;;;4.07;3.10;;;20.20;68.00;;;;;;10413872;28;20220;-28
2021/07/20 10:29:11;;;;;;;4.73;3.17;;;20.20;68.30;;;;;;10410987;28;20705;-29
2021/07/20 10:34:37;;;;;;;4.13;3.03;;;20.20;67.60;;;;;;10411963;28;20235;-29
2021/07/20 10:40:06;;;;;;;5.30;3.57;;;20.20;67.60;;;;;;10409448;28;20213;-29
2021/07/20 10:45:33;;;;;;;7.27;3.33;;;20.20;67.60;;;;;;10410747;28;20193;-29
2021/07/20 10:51:02;;;;;;;3.37;2.73;;;20.20;68.40;;;;;;10404315;28;20224;-28
2021/07/20 10:56:30;;;;;;;6.67;3.70;;;20.20;68.20;;;;;;10428397;28;20208;-31
2021/07/20 11:02:03;;;;;;;6.03;3.73;;;20.20;68.50;;;;;;10411194;28;20593;-29
2021/07/20 11:07:29;;;;;;;9.40;3.80;;;20.20;67.90;;;;;;10418402;28;20205;-29
2021/07/20 11:12:57;;;;;;;6.07;3.90;;;20.30;67.50;;;;;;10408703;28;20228;-29
2021/07/20 11:18:21;;;;;;;5.60;3.47;;;20.30;66.90;;;;;;10416499;28;20230;-33
2021/07/20 11:23:46;;;;;;;5.17;3.80;;;20.30;66.80;;;;;;10415966;28;20573;-29
2021/07/20 11:29:08;;;;;;;5.17;3.70;;;20.30;67.20;;;;;;10417407;28;20225;-32
2021/07/20 11:34:34;;;;;;;5.67;3.50;;;20.30;67.20;;;;;;10399547;28;20206;-31
2021/07/20 11:40:04;;;;;;;7.60;3.73;;;20.30;67.40;;;;;;10407012;28;20222;-34
2021/07/20 11:45:33;;;;;;;5.23;3.63;;;20.40;66.70;;;;;;10403506;28;20204;-29
2021/07/20 11:51:00;;;;;;;4.47;3.40;;;20.30;67.20;;;;;;10363512;28;20229;-31
2021/07/20 11:56:27;;;;;;;13.20;3.90;;;20.40;65.20;;;;;;10367896;28;20229;-30
2021/07/20 12:02:26;;;;;;;8.03;3.90;;;20.30;65.60;;;;;;10403135;28;20617;-30
2021/07/20 12:07:54;;;;;;;6.23;3.40;;;20.30;66.10;;;;;;10391130;28;20621;-32
2021/07/20 12:13:20;;;;;;;5.27;3.43;;;20.30;66.80;;;;;;10404436;28;20214;-29
2021/07/20 12:18:50;;;;;;;6.57;3.80;;;20.30;67.40;;;;;;10415865;28;20227;-28
2021/07/20 12:24:12;;;;;;;3.50;3.17;;;20.30;67.40;;;;;;10416326;28;20190;-27
2021/07/20 12:29:42;;;;;;;4.83;3.60;;;20.30;68.00;;;;;;10428489;28;20706;-29
2021/07/20 12:35:05;;;;;;;4.43;3.23;;;20.30;68.00;;;;;;10434312;28;20190;-28
2021/07/20 12:40:28;;;;;;;7.77;4.03;;;20.30;68.00;;;;;;10425038;28;20332;-29
2021/07/20 12:45:52;;;;;;;6.10;3.83;;;20.30;67.60;;;;;;10407130;28;20214;-29
2021/07/20 12:51:16;;;;;;;6.67;4.07;;;20.30;68.20;;;;;;10409803;28;20222;-29
2021/07/20 12:56:38;;;;;;;5.43;4.00;;;20.40;68.00;;;;;;10410575;28;20205;-28
2021/07/20 13:02:02;;;;;;;4.97;3.70;;;20.40;68.10;;;;;;10410837;28;20221;-28
2021/07/20 13:07:24;;;;;;;5.20;4.00;;;20.30;68.10;;;;;;10407115;28;20245;-28
2021/07/20 13:12:48;;;;;;;5.00;3.70;;;20.40;67.70;;;;;;10397122;28;20220;-29
2021/07/20 13:18:12;;;;;;;5.27;4.17;;;20.40;67.90;;;;;;10430662;28;20232;-32
2021/07/20 13:23:40;;;;;;;5.73;4.20;;;20.40;68.10;;;;;;10430872;28;20284;-30
2021/07/20 13:29:05;;;;;;;5.80;4.07;;;20.40;67.70;;;;;;10424813;28;20216;-28
2021/07/20 13:34:28;;;;;;;40.63;7.57;;;20.40;67.60;;;;;;10439034;28;20212;-29
2021/07/20 13:39:51;;;;;;;28.40;6.63;;;20.40;66.60;;;;;;10429911;28;20269;-30
2021/07/20 13:45:14;;;;;;;13.07;4.60;;;20.40;67.20;;;;;;10412397;28;20659;-30
2021/07/20 13:50:40;;;;;;;9.47;4.67;;;20.40;67.40;;;;;;10413314;28;20228;-28
2021/07/20 13:56:17;;;;;;;9.63;4.40;;;20.40;66.60;;;;;;10404924;28;20202;-29
2021/07/20 14:01:41;;;;;;;7.67;4.20;;;20.40;66.20;;;;;;10419845;28;20338;-30
2021/07/20 14:07:06;;;;;;;8.80;5.33;;;20.40;66.20;;;;;;10416542;28;20202;-30
2021/07/20 14:12:28;;;;;;;8.40;4.70;;;20.40;66.60;;;;;;10410482;28;20244;-30
2021/07/20 14:17:51;;;;;;;6.67;4.63;;;20.40;66.90;;;;;;10432551;28;20224;-31
2021/07/20 14:23:14;;;;;;;7.50;4.60;;;20.40;67.30;;;;;;10425469;28;20194;-29
2021/07/20 14:28:37;;;;;;;4.57;4.07;;;20.40;67.50;;;;;;10431181;28;20267;-30
2021/07/20 14:34:04;;;;;;;7.93;4.40;;;20.40;67.70;;;;;;10415801;28;20221;-28
2021/07/20 14:39:33;;;;;;;6.20;4.57;;;20.40;68.00;;;;;;10420520;28;20217;-32
2021/07/20 14:45:02;;;;;;;5.77;4.57;;;20.40;68.10;;;;;;10410857;28;20700;-30
2021/07/20 14:50:26;;;;;;;5.83;4.40;;;20.40;68.50;;;;;;10409342;28;20222;-28
2021/07/20 14:55:50;;;;;;;7.03;5.00;;;20.40;68.60;;;;;;10414822;28;20200;-35
2021/07/20 15:01:17;;;;;;;7.97;5.00;;;20.40;68.60;;;;;;10411418;28;20226;-32
2021/07/20 15:06:41;;;;;;;6.43;4.60;;;20.40;68.80;;;;;;10411941;28;20344;-34
2021/07/20 15:12:06;;;;;;;6.00;4.70;;;20.40;68.80;;;;;;10411302;28;20248;-29
2021/07/20 15:17:30;;;;;;;5.47;4.37;;;20.40;68.80;;;;;;10428238;28;20200;-29
2021/07/20 15:22:53;;;;;;;6.03;4.43;;;20.40;69.20;;;;;;10430917;22;20244;-31
2021/07/20 15:28:19;;;;;;;7.40;4.77;;;20.40;69.30;;;;;;10412341;28;20301;-28
2021/07/20 15:33:41;;;;;;;6.93;4.50;;;20.40;69.00;;;;;;10399299;28;20229;-26
2021/07/20 15:39:07;;;;;;;6.80;5.03;;;20.40;69.10;;;;;;10382839;28;20199;-28
2021/07/20 15:44:31;;;;;;;8.00;5.27;;;20.40;69.20;;;;;;10392093;28;20210;-29
2021/07/20 15:49:56;;;;;;;6.43;5.30;;;20.50;69.70;;;;;;10383693;28;20225;-27
2021/07/20 15:55:20;;;;;;;5.73;4.47;;;20.40;69.40;;;;;;10412488;28;20565;-31
2021/07/20 16:00:44;;;;;;;7.30;4.60;;;20.40;69.40;;;;;;10417743;28;20217;-28
2021/07/20 16:06:06;;;;;;;6.97;4.83;;;20.40;69.60;;;;;;10397698;28;20190;-27
2021/07/20 16:11:29;;;;;;;7.60;4.87;;;20.40;69.80;;;;;;10356182;28;20218;-27
2021/07/20 16:16:53;;;;;;;6.63;5.03;;;20.40;69.70;;;;;;10354991;28;20252;-29
2021/07/20 16:22:15;;;;;;;6.43;5.17;;;20.40;69.90;;;;;;10359895;28;20219;-30
2021/07/20 16:27:37;;;;;;;6.83;5.13;;;20.40;69.90;;;;;;10353489;28;20245;-28
2021/07/20 16:33:01;;;;;;;7.30;6.23;;;20.40;70.20;;;;;;10359173;28;20222;-29
2021/07/20 16:38:25;;;;;;;9.17;5.80;;;20.40;70.10;;;;;;10361098;28;20767;-29
2021/07/20 16:43:48;;;;;;;15.33;6.80;;;20.40;70.40;;;;;;10369051;28;20211;-32
2021/07/20 16:49:12;;;;;;;9.33;6.83;;;20.40;70.50;;;;;;10369798;28;20198;-29
2021/07/20 16:54:35;;;;;;;7.43;5.83;;;20.40;70.30;;;;;;10367808;28;20222;-27
2021/07/20 16:59:57;;;;;;;9.77;6.50;;;20.40;70.50;;;;;;10368261;28;20225;-28
2021/07/20 17:05:20;;;;;;;7.60;6.80;;;20.40;70.40;;;;;;10369014;28;20194;-30
2021/07/20 17:10:42;;;;;;;8.57;6.50;;;20.40;70.50;;;;;;10384931;28;20225;-30
2021/07/20 17:16:05;;;;;;;8.80;7.00;;;20.40;70.60;;;;;;10410217;28;20215;-28
2021/07/20 17:21:29;;;;;;;8.83;6.37;;;20.40;70.70;;;;;;10398413;28;20229;-27
2021/07/20 17:26:52;;;;;;;7.47;6.27;;;20.40;70.80;;;;;;10372196;28;20209;-30
2021/07/20 17:32:15;;;;;;;9.23;7.07;;;20.40;71.40;;;;;;10373236;28;20228;-25
2021/07/20 17:37:39;;;;;;;9.07;6.77;;;20.40;71.10;;;;;;10359267;28;20195;-26
2021/07/20 17:43:01;;;;;;;9.13;6.57;;;20.40;71.10;;;;;;10332116;28;20615;-25
2021/07/20 17:48:24;;;;;;;7.43;6.20;;;20.40;71.30;;;;;;10360045;28;20209;-26
2021/07/20 17:53:53;;;;;;;7.77;6.00;;;20.40;71.40;;;;;;10350688;28;20215;-27
2021/07/20 17:59:15;;;;;;;11.00;6.63;;;20.40;71.50;;;;;;10352475;28;20207;-28
2021/07/20 18:04:40;;;;;;;8.50;6.50;;;20.30;71.60;;;;;;10343898;28;20198;-29
2021/07/20 18:10:05;;;;;;;11.10;6.77;;;20.30;71.80;;;;;;10340435;28;20297;-31
2021/07/20 18:15:27;;;;;;;7.67;6.60;;;20.40;71.80;;;;;;10351185;28;20237;-25
2021/07/20 18:20:49;;;;;;;7.97;6.00;;;20.30;72.00;;;;;;10346491;28;20227;-27
2021/07/20 18:26:13;;;;;;;7.97;6.17;;;20.40;72.20;;;;;;10350309;28;20199;-26
2021/07/20 18:31:39;;;;;;;9.30;5.63;;;20.40;72.30;;;;;;10350338;28;20207;-25
2021/07/20 18:37:01;;;;;;;8.47;5.73;;;20.40;72.30;;;;;;10354013;28;20211;-29
2021/07/20 18:42:25;;;;;;;10.17;5.87;;;20.40;72.20;;;;;;10350621;28;20215;-30
2021/07/20 18:47:47;;;;;;;8.10;5.40;;;20.40;72.40;;;;;;10348719;28;20191;-25
2021/07/20 18:53:09;;;;;;;6.93;4.97;;;20.40;72.30;;;;;;10332786;28;20230;-29
2021/07/20 18:58:33;;;;;;;6.60;5.10;;;20.30;72.30;;;;;;10330647;28;20199;-26
2021/07/20 19:03:55;;;;;;;6.37;4.90;;;20.30;72.60;;;;;;10358405;28;20218;-27
2021/07/20 19:09:17;;;;;;;6.53;4.70;;;20.30;72.60;;;;;;10348536;28;20186;-29
2021/07/20 19:14:41;;;;;;;5.33;4.60;;;20.20;72.20;;;;;;10346437;28;20219;-27
2021/07/20 19:20:04;;;;;;;6.07;4.83;;;20.30;72.40;;;;;;10356451;28;20576;-28
2021/07/20 19:25:26;;;;;;;7.07;5.00;;;20.20;72.10;;;;;;10346610;28;20184;-30
2021/07/20 19:30:50;;;;;;;7.77;4.93;;;20.20;72.00;;;;;;10360170;28;20225;-26
2021/07/20 19:36:12;;;;;;;7.60;5.00;;;20.20;72.00;;;;;;10362866;28;20390;-26
2021/07/20 19:41:34;;;;;;;6.27;4.30;;;20.20;72.10;;;;;;10370068;28;20218;-29
2021/07/20 19:46:58;;;;;;;6.03;4.40;;;20.20;72.70;;;;;;10360813;28;20194;-24
2021/07/20 19:52:20;;;;;;;5.50;4.50;;;20.10;72.00;;;;;;10360612;28;20218;-29
2021/07/20 19:57:42;;;;;;;8.30;4.73;;;20.10;71.70;;;;;;10359057;28;20206;-27
2021/07/20 20:03:06;;;;;;;4.97;3.87;;;20.10;71.70;;;;;;10357924;28;20594;-28
2021/07/20 20:08:28;;;;;;;7.00;4.57;;;20.10;72.20;;;;;;10368652;28;20206;-27
2021/07/20 20:13:50;;;;;;;6.37;4.67;;;20.10;72.20;;;;;;10352347;28;20227;-29
2021/07/20 20:19:14;;;;;;;6.67;4.43;;;20.10;72.40;;;;;;10374902;28;20459;-27
2021/07/20 20:24:36;;;;;;;9.60;4.77;;;20.10;72.50;;;;;;10392830;28;20210;-28
2021/07/20 20:29:59;;;;;;;10.10;4.90;;;20.00;73.40;;;;;;10381617;28;20218;-25
2021/07/20 20:35:22;;;;;;;5.77;4.90;;;20.00;72.90;;;;;;10381811;28;20214;-26
2021/07/20 20:40:44;;;;;;;6.83;4.87;;;20.00;73.00;;;;;;10343409;28;20720;-28
2021/07/20 20:46:07;;;;;;;7.97;5.43;;;20.10;73.30;;;;;;10351124;28;20206;-27
2021/07/20 20:51:30;;;;;;;9.50;5.40;;;20.00;73.30;;;;;;10362328;28;20219;-27
2021/07/20 20:56:52;;;;;;;7.60;5.63;;;20.00;73.50;;;;;;10335067;28;20570;-31
2021/07/20 21:02:14;;;;;;;8.17;5.23;;;20.00;73.50;;;;;;10362231;28;20235;-31
2021/07/20 21:07:38;;;;;;;6.97;5.17;;;20.00;73.50;;;;;;10385187;28;20544;-31
2021/07/20 21:13:00;;;;;;;6.53;5.40;;;20.00;73.50;;;;;;10356021;28;20218;-28
2021/07/20 21:18:22;;;;;;;6.63;5.40;;;20.00;73.50;;;;;;10373125;28;20198;-27
2021/07/20 21:23:45;;;;;;;8.40;5.87;;;19.90;73.40;;;;;;10435393;22;20304;-31
2021/07/20 21:29:08;;;;;;;8.37;5.60;;;20.00;73.40;;;;;;10455672;28;20201;-33
2021/07/20 21:34:30;;;;;;;7.57;5.93;;;19.90;73.30;;;;;;10442406;28;20225;-30
2021/07/20 21:39:55;;;;;;;7.20;5.90;;;19.90;73.50;;;;;;10451060;28;20197;-29
2021/07/20 21:45:17;;;;;;;9.80;6.30;;;19.90;73.70;;;;;;10447927;28;20568;-34
2021/07/20 21:50:39;;;;;;;9.50;6.20;;;19.90;73.90;;;;;;10441262;28;20704;-33
2021/07/20 21:56:02;;;;;;;9.37;6.43;;;19.80;74.00;;;;;;10412883;28;20213;-30
2021/07/20 22:01:24;;;;;;;8.70;6.20;;;19.80;74.30;;;;;;10417140;28;20220;-31
2021/07/20 22:06:47;;;;;;;8.83;6.40;;;19.80;74.50;;;;;;10439984;28;20193;-29
2021/07/20 22:12:11;;;;;;;11.63;7.07;;;19.80;74.70;;;;;;10454417;28;20213;-28
2021/07/20 22:17:33;;;;;;;10.50;7.30;;;19.80;74.60;;;;;;10452672;28;20205;-30
2021/07/20 22:22:55;;;;;;;8.10;6.80;;;19.80;75.00;;;;;;10440147;28;20216;-34
2021/07/20 22:28:19;;;;;;;9.07;7.03;;;19.70;75.30;;;;;;10434714;28;20592;-30
2021/07/20 22:33:41;;;;;;;10.63;7.67;;;19.80;75.30;;;;;;10411985;28;20574;-29
2021/07/20 22:39:04;;;;;;;8.60;7.07;;;19.70;75.60;;;;;;10412088;28;20201;-29
2021/07/20 22:44:28;;;;;;;10.07;6.87;;;19.80;75.40;;;;;;10453524;28;20216;-29
2021/07/20 22:49:50;;;;;;;10.50;7.83;;;19.80;75.70;;;;;;10453388;28;20667;-29
2021/07/20 22:55:14;;;;;;;10.63;7.90;;;19.70;75.80;;;;;;10453130;28;20221;-31
2021/07/20 23:00:40;;;;;;;9.97;7.70;;;19.80;75.80;;;;;;10452961;28;20224;-31
2021/07/20 23:06:02;;;;;;;10.03;7.53;;;19.70;76.10;;;;;;10474814;28;20571;-29
2021/07/20 23:11:24;;;;;;;8.73;7.23;;;19.70;76.20;;;;;;10489908;28;20227;-29
2021/07/20 23:16:48;;;;;;;9.63;6.90;;;19.70;76.10;;;;;;10452093;28;20192;-31
2021/07/20 23:22:10;;;;;;;11.73;6.67;;;19.70;76.20;;;;;;10470974;28;20591;-28
2021/07/20 23:27:32;;;;;;;8.77;6.70;;;19.70;76.10;;;;;;10492126;28;20205;-30
2021/07/20 23:32:57;;;;;;;9.47;7.13;;;19.70;76.10;;;;;;10491080;28;20209;-29
2021/07/20 23:38:20;;;;;;;9.27;6.67;;;19.70;76.20;;;;;;10492918;28;20192;-30
2021/07/20 23:43:42;;;;;;;9.73;7.27;;;19.70;76.40;;;;;;10493019;28;20262;-31
2021/07/20 23:49:05;;;;;;;8.67;6.87;;;19.60;76.60;;;;;;10493410;28;20196;-30
2021/07/20 23:54:27;;;;;;;12.00;7.10;;;19.60;76.80;;;;;;10487217;28;20221;-29
2021/07/20 23:59:49;;;;;;;11.23;7.70;;;19.60;77.00;;;;;;10462172;28;20197;-31
